sensor_id;sensor_type;location;lat;lon;timestamp;P1;durP1;ratioP1;P2;durP2;ratioP2
40052;SDS011;25758;48.200;16.338;2024-01-07T00:01:01;7.53;;;3.17;;
40052;SDS011;25758;48.200;16.338;2024-01-07T00:03:27;5.28;;;2.83;;
40052;SDS011;25758;48.200;16.338;2024-01-07T00:05:53;6.05;;;2.85;;
40052;SDS011;25758;48.200;16.338;2024-01-07T00:08:18;5.53;;;3.13;;
40052;SDS011;25758;48.200;16.338;2024-01-07T00:10:46;5.80;;;2.95;;
40052;SDS011;25758;48.200;16.338;2024-01-07T00:13:12;6.53;;;3.35;;
40052;SDS011;25758;48.200;16.338;2024-01-07T00:15:37;9.05;;;3.25;;
40052;SDS011;25758;48.200;16.338;2024-01-07T00:18:03;6.47;;;3.20;;
40052;SDS011;25758;48.200;16.338;2024-01-07T00:20:28;5.70;;;3.03;;
40052;SDS011;25758;48.200;16.338;2024-01-07T00:22:54;5.40;;;2.40;;
40052;SDS011;25758;48.200;16.338;2024-01-07T00:25:21;4.10;;;2.08;;
40052;SDS011;25758;48.200;16.338;2024-01-07T00:27:47;4.85;;;2.55;;
40052;SDS011;25758;48.200;16.338;2024-01-07T00:30:12;4.25;;;2.33;;
40052;SDS011;25758;48.200;16.338;2024-01-07T00:32:38;4.82;;;2.70;;
40052;SDS011;25758;48.200;16.338;2024-01-07T00:35:04;5.68;;;2.47;;
40052;SDS011;25758;48.200;16.338;2024-01-07T00:37:30;5.60;;;2.83;;
40052;SDS011;25758;48.200;16.338;2024-01-07T00:39:55;7.78;;;4.03;;
40052;SDS011;25758;48.200;16.338;2024-01-07T00:42:21;9.25;;;3.80;;
40052;SDS011;25758;48.200;16.338;2024-01-07T00:44:47;6.97;;;3.60;;
40052;SDS011;25758;48.200;16.338;2024-01-07T00:47:12;5.20;;;2.78;;
40052;SDS011;25758;48.200;16.338;2024-01-07T00:49:38;4.38;;;2.42;;
40052;SDS011;25758;48.200;16.338;2024-01-07T00:52:05;5.15;;;2.15;;
40052;SDS011;25758;48.200;16.338;2024-01-07T00:54:31;5.50;;;3.05;;
40052;SDS011;25758;48.200;16.338;2024-01-07T00:56:56;6.18;;;3.33;;
40052;SDS011;25758;48.200;16.338;2024-01-07T00:59:23;5.38;;;2.63;;
40052;SDS011;25758;48.200;16.338;2024-01-07T01:01:57;6.97;;;2.60;;
40052;SDS011;25758;48.200;16.338;2024-01-07T01:04:23;5.63;;;2.90;;
40052;SDS011;25758;48.200;16.338;2024-01-07T01:06:49;4.88;;;2.22;;
40052;SDS011;25758;48.200;16.338;2024-01-07T01:09:15;7.03;;;3.22;;
40052;SDS011;25758;48.200;16.338;2024-01-07T01:11:40;8.18;;;3.83;;
40052;SDS011;25758;48.200;16.338;2024-01-07T01:14:06;5.15;;;2.85;;
40052;SDS011;25758;48.200;16.338;2024-01-07T01:16:31;4.78;;;2.42;;
40052;SDS011;25758;48.200;16.338;2024-01-07T01:18:57;3.63;;;1.83;;
40052;SDS011;25758;48.200;16.338;2024-01-07T01:21:22;3.72;;;2.50;;
40052;SDS011;25758;48.200;16.338;2024-01-07T01:23:48;4.20;;;1.92;;
40052;SDS011;25758;48.200;16.338;2024-01-07T01:32:44;5.25;;;2.75;;
40052;SDS011;25758;48.200;16.338;2024-01-07T01:35:09;4.28;;;2.33;;
40052;SDS011;25758;48.200;16.338;2024-01-07T01:37:35;6.05;;;2.45;;
40052;SDS011;25758;48.200;16.338;2024-01-07T01:40:01;4.55;;;2.17;;
40052;SDS011;25758;48.200;16.338;2024-01-07T01:42:27;3.72;;;1.98;;
40052;SDS011;25758;48.200;16.338;2024-01-07T01:44:53;6.13;;;2.38;;
40052;SDS011;25758;48.200;16.338;2024-01-07T01:47:21;4.35;;;1.92;;
40052;SDS011;25758;48.200;16.338;2024-01-07T01:49:48;4.38;;;1.58;;
40052;SDS011;25758;48.200;16.338;2024-01-07T01:52:14;5.15;;;2.15;;
40052;SDS011;25758;48.200;16.338;2024-01-07T01:54:39;3.40;;;1.85;;
40052;SDS011;25758;48.200;16.338;2024-01-07T01:57:05;4.85;;;2.05;;
40052;SDS011;25758;48.200;16.338;2024-01-07T01:59:33;3.72;;;2.03;;
40052;SDS011;25758;48.200;16.338;2024-01-07T02:01:59;4.68;;;2.08;;
40052;SDS011;25758;48.200;16.338;2024-01-07T02:04:25;3.47;;;1.92;;
40052;SDS011;25758;48.200;16.338;2024-01-07T02:06:51;3.38;;;2.00;;
40052;SDS011;25758;48.200;16.338;2024-01-07T02:09:17;7.45;;;2.55;;
40052;SDS011;25758;48.200;16.338;2024-01-07T02:11:43;4.95;;;2.15;;
40052;SDS011;25758;48.200;16.338;2024-01-07T02:14:08;4.55;;;2.33;;
40052;SDS011;25758;48.200;16.338;2024-01-07T02:16:34;4.75;;;1.98;;
40052;SDS011;25758;48.200;16.338;2024-01-07T02:19:00;3.83;;;1.95;;
40052;SDS011;25758;48.200;16.338;2024-01-07T02:21:26;5.60;;;2.58;;
40052;SDS011;25758;48.200;16.338;2024-01-07T02:23:51;5.28;;;2.55;;
40052;SDS011;25758;48.200;16.338;2024-01-07T02:26:17;5.00;;;2.50;;
40052;SDS011;25758;48.200;16.338;2024-01-07T02:28:43;4.88;;;2.67;;
40052;SDS011;25758;48.200;16.338;2024-01-07T02:31:09;6.40;;;2.95;;
40052;SDS011;25758;48.200;16.338;2024-01-07T02:33:34;5.18;;;2.53;;
40052;SDS011;25758;48.200;16.338;2024-01-07T02:36:00;4.45;;;2.60;;
40052;SDS011;25758;48.200;16.338;2024-01-07T02:38:26;4.53;;;2.40;;
40052;SDS011;25758;48.200;16.338;2024-01-07T02:40:52;7.78;;;3.28;;
40052;SDS011;25758;48.200;16.338;2024-01-07T02:43:18;4.80;;;2.90;;
40052;SDS011;25758;48.200;16.338;2024-01-07T02:45:43;6.07;;;2.65;;
40052;SDS011;25758;48.200;16.338;2024-01-07T02:48:09;4.68;;;2.65;;
40052;SDS011;25758;48.200;16.338;2024-01-07T02:50:35;4.57;;;2.83;;
40052;SDS011;25758;48.200;16.338;2024-01-07T02:53:00;4.85;;;3.08;;
40052;SDS011;25758;48.200;16.338;2024-01-07T02:55:26;9.35;;;3.90;;
40052;SDS011;25758;48.200;16.338;2024-01-07T02:57:52;9.40;;;4.43;;
40052;SDS011;25758;48.200;16.338;2024-01-07T03:00:17;4.68;;;2.78;;
40052;SDS011;25758;48.200;16.338;2024-01-07T03:02:43;5.32;;;3.03;;
40052;SDS011;25758;48.200;16.338;2024-01-07T03:05:10;4.25;;;2.78;;
40052;SDS011;25758;48.200;16.338;2024-01-07T03:07:37;4.90;;;2.80;;
40052;SDS011;25758;48.200;16.338;2024-01-07T03:10:04;5.25;;;3.15;;
40052;SDS011;25758;48.200;16.338;2024-01-07T03:12:30;5.97;;;3.30;;
40052;SDS011;25758;48.200;16.338;2024-01-07T03:14:59;5.55;;;2.88;;
40052;SDS011;25758;48.200;16.338;2024-01-07T03:17:24;5.57;;;3.47;;
40052;SDS011;25758;48.200;16.338;2024-01-07T03:19:50;5.03;;;3.28;;
40052;SDS011;25758;48.200;16.338;2024-01-07T03:22:15;7.22;;;3.40;;
40052;SDS011;25758;48.200;16.338;2024-01-07T03:24:41;4.97;;;2.35;;
40052;SDS011;25758;48.200;16.338;2024-01-07T03:27:07;5.40;;;2.92;;
40052;SDS011;25758;48.200;16.338;2024-01-07T03:29:33;3.75;;;2.35;;
40052;SDS011;25758;48.200;16.338;2024-01-07T03:31:58;5.78;;;2.85;;
40052;SDS011;25758;48.200;16.338;2024-01-07T03:34:27;6.55;;;2.95;;
40052;SDS011;25758;48.200;16.338;2024-01-07T03:36:54;5.40;;;2.97;;
40052;SDS011;25758;48.200;16.338;2024-01-07T03:39:19;4.30;;;2.22;;
40052;SDS011;25758;48.200;16.338;2024-01-07T03:41:45;6.50;;;3.42;;
40052;SDS011;25758;48.200;16.338;2024-01-07T03:47:15;7.32;;;3.65;;
40052;SDS011;25758;48.200;16.338;2024-01-07T03:49:41;7.53;;;4.28;;
40052;SDS011;25758;48.200;16.338;2024-01-07T03:52:07;6.35;;;3.75;;
40052;SDS011;25758;48.200;16.338;2024-01-07T03:54:40;7.82;;;4.32;;
40052;SDS011;25758;48.200;16.338;2024-01-07T03:57:05;8.35;;;4.80;;
40052;SDS011;25758;48.200;16.338;2024-01-07T03:59:31;6.00;;;3.65;;
40052;SDS011;25758;48.200;16.338;2024-01-07T04:01:57;7.05;;;3.72;;
40052;SDS011;25758;48.200;16.338;2024-01-07T04:04:23;7.25;;;3.95;;
40052;SDS011;25758;48.200;16.338;2024-01-07T04:06:48;6.53;;;4.22;;
40052;SDS011;25758;48.200;16.338;2024-01-07T04:09:14;7.40;;;3.60;;
40052;SDS011;25758;48.200;16.338;2024-01-07T04:11:40;6.00;;;3.45;;
40052;SDS011;25758;48.200;16.338;2024-01-07T04:14:09;7.43;;;3.35;;
40052;SDS011;25758;48.200;16.338;2024-01-07T04:16:35;6.13;;;3.78;;
40052;SDS011;25758;48.200;16.338;2024-01-07T04:19:18;7.03;;;4.30;;
40052;SDS011;25758;48.200;16.338;2024-01-07T04:21:48;9.63;;;4.53;;
40052;SDS011;25758;48.200;16.338;2024-01-07T04:24:14;7.65;;;4.72;;
40052;SDS011;25758;48.200;16.338;2024-01-07T04:26:39;9.13;;;5.28;;
40052;SDS011;25758;48.200;16.338;2024-01-07T04:29:06;7.03;;;3.75;;
40052;SDS011;25758;48.200;16.338;2024-01-07T04:31:31;7.70;;;4.10;;
40052;SDS011;25758;48.200;16.338;2024-01-07T04:33:57;6.45;;;3.97;;
40052;SDS011;25758;48.200;16.338;2024-01-07T04:36:23;6.75;;;4.00;;
40052;SDS011;25758;48.200;16.338;2024-01-07T04:38:49;7.57;;;4.50;;
40052;SDS011;25758;48.200;16.338;2024-01-07T04:41:23;6.40;;;4.10;;
40052;SDS011;25758;48.200;16.338;2024-01-07T04:43:54;10.45;;;4.57;;
40052;SDS011;25758;48.200;16.338;2024-01-07T04:46:20;5.43;;;3.35;;
40052;SDS011;25758;48.200;16.338;2024-01-07T04:48:45;4.70;;;3.28;;
40052;SDS011;25758;48.200;16.338;2024-01-07T04:57:30;7.25;;;3.85;;
40052;SDS011;25758;48.200;16.338;2024-01-07T04:59:56;7.82;;;4.03;;
40052;SDS011;25758;48.200;16.338;2024-01-07T05:02:21;7.28;;;4.10;;
40052;SDS011;25758;48.200;16.338;2024-01-07T05:04:48;6.93;;;3.92;;
40052;SDS011;25758;48.200;16.338;2024-01-07T05:07:14;6.57;;;4.05;;
40052;SDS011;25758;48.200;16.338;2024-01-07T05:09:40;5.95;;;3.72;;
40052;SDS011;25758;48.200;16.338;2024-01-07T05:12:06;5.50;;;3.60;;
40052;SDS011;25758;48.200;16.338;2024-01-07T05:14:31;7.45;;;3.70;;
40052;SDS011;25758;48.200;16.338;2024-01-07T05:16:57;7.57;;;4.05;;
40052;SDS011;25758;48.200;16.338;2024-01-07T05:19:23;7.03;;;4.28;;
40052;SDS011;25758;48.200;16.338;2024-01-07T05:21:49;7.65;;;4.38;;
40052;SDS011;25758;48.200;16.338;2024-01-07T05:24:14;7.03;;;4.03;;
40052;SDS011;25758;48.200;16.338;2024-01-07T05:26:43;5.50;;;3.90;;
40052;SDS011;25758;48.200;16.338;2024-01-07T05:29:09;6.35;;;3.30;;
40052;SDS011;25758;48.200;16.338;2024-01-07T05:31:37;8.65;;;4.13;;
40052;SDS011;25758;48.200;16.338;2024-01-07T05:37:49;8.18;;;4.47;;
40052;SDS011;25758;48.200;16.338;2024-01-07T05:40:15;8.75;;;4.82;;
40052;SDS011;25758;48.200;16.338;2024-01-07T05:42:40;7.57;;;3.78;;
40052;SDS011;25758;48.200;16.338;2024-01-07T05:45:06;7.10;;;3.97;;
40052;SDS011;25758;48.200;16.338;2024-01-07T05:50:49;6.47;;;3.95;;
40052;SDS011;25758;48.200;16.338;2024-01-07T05:53:16;6.82;;;3.50;;
40052;SDS011;25758;48.200;16.338;2024-01-07T05:55:42;9.77;;;4.47;;
40052;SDS011;25758;48.200;16.338;2024-01-07T05:58:08;6.95;;;4.30;;
40052;SDS011;25758;48.200;16.338;2024-01-07T06:00:35;7.72;;;4.35;;
40052;SDS011;25758;48.200;16.338;2024-01-07T06:03:00;7.75;;;3.40;;
40052;SDS011;25758;48.200;16.338;2024-01-07T06:05:26;8.07;;;3.95;;
40052;SDS011;25758;48.200;16.338;2024-01-07T06:14:12;5.90;;;4.07;;
40052;SDS011;25758;48.200;16.338;2024-01-07T06:16:38;7.32;;;4.15;;
40052;SDS011;25758;48.200;16.338;2024-01-07T06:19:03;7.70;;;4.10;;
40052;SDS011;25758;48.200;16.338;2024-01-07T06:24:55;5.95;;;3.65;;
40052;SDS011;25758;48.200;16.338;2024-01-07T06:27:21;7.78;;;4.18;;
40052;SDS011;25758;48.200;16.338;2024-01-07T06:36:22;9.18;;;4.22;;
40052;SDS011;25758;48.200;16.338;2024-01-07T06:38:48;7.15;;;3.63;;
40052;SDS011;25758;48.200;16.338;2024-01-07T06:41:14;6.65;;;4.03;;
40052;SDS011;25758;48.200;16.338;2024-01-07T06:43:40;8.15;;;4.38;;
40052;SDS011;25758;48.200;16.338;2024-01-07T06:46:06;6.57;;;3.63;;
40052;SDS011;25758;48.200;16.338;2024-01-07T06:48:32;6.47;;;4.03;;
40052;SDS011;25758;48.200;16.338;2024-01-07T06:50:58;7.13;;;3.78;;
40052;SDS011;25758;48.200;16.338;2024-01-07T06:53:23;8.07;;;4.15;;
40052;SDS011;25758;48.200;16.338;2024-01-07T06:55:49;7.70;;;4.55;;
40052;SDS011;25758;48.200;16.338;2024-01-07T06:58:15;8.35;;;4.03;;
40052;SDS011;25758;48.200;16.338;2024-01-07T07:00:41;9.32;;;4.75;;
40052;SDS011;25758;48.200;16.338;2024-01-07T07:03:07;6.45;;;4.13;;
40052;SDS011;25758;48.200;16.338;2024-01-07T07:05:33;6.40;;;3.67;;
40052;SDS011;25758;48.200;16.338;2024-01-07T07:14:57;10.27;;;4.43;;
40052;SDS011;25758;48.200;16.338;2024-01-07T07:17:22;9.23;;;3.75;;
40052;SDS011;25758;48.200;16.338;2024-01-07T07:19:48;7.53;;;4.25;;
40052;SDS011;25758;48.200;16.338;2024-01-07T07:22:20;6.85;;;4.47;;
40052;SDS011;25758;48.200;16.338;2024-01-07T07:24:46;8.60;;;4.45;;
40052;SDS011;25758;48.200;16.338;2024-01-07T07:27:11;8.48;;;5.07;;
40052;SDS011;25758;48.200;16.338;2024-01-07T09:23:24;8.50;;;4.15;;
40052;SDS011;25758;48.200;16.338;2024-01-07T09:25:49;10.07;;;4.63;;
40052;SDS011;25758;48.200;16.338;2024-01-07T09:28:15;9.07;;;4.13;;
40052;SDS011;25758;48.200;16.338;2024-01-07T09:55:20;9.63;;;5.35;;
40052;SDS011;25758;48.200;16.338;2024-01-07T10:13:26;9.43;;;4.57;;
40052;SDS011;25758;48.200;16.338;2024-01-07T10:15:54;8.32;;;4.68;;
40052;SDS011;25758;48.200;16.338;2024-01-07T10:18:20;6.93;;;3.58;;
40052;SDS011;25758;48.200;16.338;2024-01-07T10:20:46;7.25;;;3.72;;
40052;SDS011;25758;48.200;16.338;2024-01-07T10:23:12;6.35;;;3.25;;
40052;SDS011;25758;48.200;16.338;2024-01-07T10:25:38;9.27;;;3.95;;
40052;SDS011;25758;48.200;16.338;2024-01-07T10:28:04;9.82;;;4.32;;
40052;SDS011;25758;48.200;16.338;2024-01-07T10:30:31;8.15;;;4.35;;
40052;SDS011;25758;48.200;16.338;2024-01-07T10:32:57;8.40;;;3.80;;
40052;SDS011;25758;48.200;16.338;2024-01-07T10:35:33;7.15;;;4.05;;
40052;SDS011;25758;48.200;16.338;2024-01-07T10:38:03;10.43;;;5.20;;
40052;SDS011;25758;48.200;16.338;2024-01-07T10:40:30;9.57;;;4.10;;
40052;SDS011;25758;48.200;16.338;2024-01-07T10:42:58;8.82;;;4.47;;
40052;SDS011;25758;48.200;16.338;2024-01-07T10:45:24;8.55;;;4.00;;
40052;SDS011;25758;48.200;16.338;2024-01-07T10:47:53;9.75;;;5.00;;
40052;SDS011;25758;48.200;16.338;2024-01-07T10:50:20;9.63;;;4.47;;
40052;SDS011;25758;48.200;16.338;2024-01-07T10:52:50;9.18;;;4.60;;
40052;SDS011;25758;48.200;16.338;2024-01-07T10:55:30;7.25;;;3.78;;
40052;SDS011;25758;48.200;16.338;2024-01-07T10:57:59;10.88;;;4.22;;
40052;SDS011;25758;48.200;16.338;2024-01-07T11:00:26;9.35;;;4.88;;
40052;SDS011;25758;48.200;16.338;2024-01-07T11:08:36;11.32;;;5.97;;
40052;SDS011;25758;48.200;16.338;2024-01-07T11:11:08;7.75;;;4.45;;
40052;SDS011;25758;48.200;16.338;2024-01-07T11:13:40;13.02;;;4.25;;
40052;SDS011;25758;48.200;16.338;2024-01-07T11:16:06;8.02;;;4.13;;
40052;SDS011;25758;48.200;16.338;2024-01-07T11:18:37;10.73;;;4.93;;
40052;SDS011;25758;48.200;16.338;2024-01-07T11:21:04;11.18;;;5.53;;
40052;SDS011;25758;48.200;16.338;2024-01-07T11:23:39;10.40;;;5.18;;
40052;SDS011;25758;48.200;16.338;2024-01-07T11:26:08;13.50;;;6.15;;
40052;SDS011;25758;48.200;16.338;2024-01-07T11:28:44;10.63;;;5.28;;
40052;SDS011;25758;48.200;16.338;2024-01-07T11:31:18;15.85;;;6.45;;
40052;SDS011;25758;48.200;16.338;2024-01-07T11:33:45;10.13;;;5.43;;
40052;SDS011;25758;48.200;16.338;2024-01-07T11:36:12;11.13;;;5.32;;
40052;SDS011;25758;48.200;16.338;2024-01-07T11:38:47;10.38;;;4.65;;
40052;SDS011;25758;48.200;16.338;2024-01-07T11:41:14;10.60;;;5.22;;
40052;SDS011;25758;48.200;16.338;2024-01-07T11:44:02;11.15;;;5.32;;
40052;SDS011;25758;48.200;16.338;2024-01-07T11:46:28;10.85;;;4.68;;
40052;SDS011;25758;48.200;16.338;2024-01-07T11:48:58;10.07;;;4.75;;
40052;SDS011;25758;48.200;16.338;2024-01-07T11:51:44;11.05;;;5.63;;
40052;SDS011;25758;48.200;16.338;2024-01-07T11:54:29;10.25;;;5.05;;
40052;SDS011;25758;48.200;16.338;2024-01-07T11:56:56;9.48;;;4.95;;
40052;SDS011;25758;48.200;16.338;2024-01-07T11:59:22;11.50;;;6.18;;
40052;SDS011;25758;48.200;16.338;2024-01-07T12:08:30;12.38;;;6.07;;
40052;SDS011;25758;48.200;16.338;2024-01-07T12:10:56;13.05;;;5.65;;
40052;SDS011;25758;48.200;16.338;2024-01-07T12:13:22;9.48;;;4.97;;
40052;SDS011;25758;48.200;16.338;2024-01-07T12:15:54;11.65;;;5.40;;
40052;SDS011;25758;48.200;16.338;2024-01-07T12:18:20;13.02;;;6.65;;
40052;SDS011;25758;48.200;16.338;2024-01-07T12:20:55;16.13;;;7.18;;
40052;SDS011;25758;48.200;16.338;2024-01-07T12:23:22;26.15;;;10.15;;
40052;SDS011;25758;48.200;16.338;2024-01-07T12:25:49;24.52;;;12.32;;
40052;SDS011;25758;48.200;16.338;2024-01-07T12:28:28;25.77;;;11.60;;
40052;SDS011;25758;48.200;16.338;2024-01-07T12:30:59;16.48;;;8.52;;
40052;SDS011;25758;48.200;16.338;2024-01-07T12:33:26;13.85;;;7.55;;
40052;SDS011;25758;48.200;16.338;2024-01-07T12:35:53;10.38;;;6.03;;
40052;SDS011;25758;48.200;16.338;2024-01-07T12:38:26;10.73;;;6.65;;
40052;SDS011;25758;48.200;16.338;2024-01-07T12:40:52;10.88;;;5.68;;
40052;SDS011;25758;48.200;16.338;2024-01-07T12:43:18;9.52;;;5.43;;
40052;SDS011;25758;48.200;16.338;2024-01-07T12:45:45;10.43;;;5.40;;
40052;SDS011;25758;48.200;16.338;2024-01-07T12:48:11;10.25;;;5.70;;
40052;SDS011;25758;48.200;16.338;2024-01-07T12:50:37;12.50;;;6.18;;
40052;SDS011;25758;48.200;16.338;2024-01-07T12:53:07;11.38;;;6.32;;
40052;SDS011;25758;48.200;16.338;2024-01-07T13:14:04;12.50;;;6.18;;
40052;SDS011;25758;48.200;16.338;2024-01-07T13:16:31;11.70;;;6.50;;
40052;SDS011;25758;48.200;16.338;2024-01-07T13:18:57;12.50;;;5.70;;
40052;SDS011;25758;48.200;16.338;2024-01-07T13:21:23;11.45;;;6.70;;
40052;SDS011;25758;48.200;16.338;2024-01-07T13:23:49;10.82;;;6.13;;
40052;SDS011;25758;48.200;16.338;2024-01-07T13:26:20;14.55;;;7.45;;
40052;SDS011;25758;48.200;16.338;2024-01-07T13:28:51;15.60;;;7.50;;
40052;SDS011;25758;48.200;16.338;2024-01-07T13:31:18;12.23;;;6.88;;
40052;SDS011;25758;48.200;16.338;2024-01-07T13:33:44;13.30;;;7.07;;
40052;SDS011;25758;48.200;16.338;2024-01-07T13:36:13;12.68;;;6.72;;
40052;SDS011;25758;48.200;16.338;2024-01-07T13:38:56;11.68;;;6.68;;
40052;SDS011;25758;48.200;16.338;2024-01-07T13:41:21;10.73;;;5.63;;
40052;SDS011;25758;48.200;16.338;2024-01-07T13:43:48;13.43;;;6.10;;
40052;SDS011;25758;48.200;16.338;2024-01-07T13:46:17;11.70;;;5.75;;
40052;SDS011;25758;48.200;16.338;2024-01-07T13:48:50;10.65;;;6.07;;
40052;SDS011;25758;48.200;16.338;2024-01-07T13:51:17;16.35;;;6.57;;
40052;SDS011;25758;48.200;16.338;2024-01-07T13:53:43;11.75;;;6.25;;
40052;SDS011;25758;48.200;16.338;2024-01-07T13:56:10;14.40;;;7.45;;
40052;SDS011;25758;48.200;16.338;2024-01-07T14:01:39;12.00;;;6.93;;
40052;SDS011;25758;48.200;16.338;2024-01-07T14:04:07;11.65;;;6.70;;
40052;SDS011;25758;48.200;16.338;2024-01-07T14:48:54;15.32;;;8.30;;
40052;SDS011;25758;48.200;16.338;2024-01-07T14:51:20;13.40;;;7.43;;
40052;SDS011;25758;48.200;16.338;2024-01-07T14:57:02;12.07;;;5.80;;
40052;SDS011;25758;48.200;16.338;2024-01-07T14:59:31;14.20;;;7.05;;
40052;SDS011;25758;48.200;16.338;2024-01-07T15:01:57;11.73;;;6.55;;
40052;SDS011;25758;48.200;16.338;2024-01-07T15:04:24;21.63;;;7.30;;
40052;SDS011;25758;48.200;16.338;2024-01-07T15:06:50;12.45;;;6.95;;
40052;SDS011;25758;48.200;16.338;2024-01-07T15:09:16;12.18;;;7.10;;
40052;SDS011;25758;48.200;16.338;2024-01-07T15:20:53;9.52;;;5.97;;
40052;SDS011;25758;48.200;16.338;2024-01-07T15:23:19;13.60;;;6.93;;
40052;SDS011;25758;48.200;16.338;2024-01-07T15:31:58;13.43;;;6.20;;
40052;SDS011;25758;48.200;16.338;2024-01-07T15:59:19;12.75;;;6.10;;
40052;SDS011;25758;48.200;16.338;2024-01-07T16:04:52;8.65;;;5.57;;
40052;SDS011;25758;48.200;16.338;2024-01-07T16:07:18;10.98;;;6.43;;
40052;SDS011;25758;48.200;16.338;2024-01-07T16:15:59;10.52;;;5.65;;
40052;SDS011;25758;48.200;16.338;2024-01-07T16:21:29;9.38;;;6.22;;
40052;SDS011;25758;48.200;16.338;2024-01-07T16:23:55;9.73;;;6.10;;
40052;SDS011;25758;48.200;16.338;2024-01-07T16:26:21;15.68;;;8.00;;
40052;SDS011;25758;48.200;16.338;2024-01-07T16:28:47;14.13;;;7.40;;
40052;SDS011;25758;48.200;16.338;2024-01-07T16:47:04;13.25;;;7.70;;
40052;SDS011;25758;48.200;16.338;2024-01-07T16:49:32;20.00;;;9.02;;
40052;SDS011;25758;48.200;16.338;2024-01-07T16:51:59;12.95;;;7.97;;
40052;SDS011;25758;48.200;16.338;2024-01-07T16:54:26;15.70;;;7.93;;
40052;SDS011;25758;48.200;16.338;2024-01-07T17:00:17;11.32;;;6.57;;
40052;SDS011;25758;48.200;16.338;2024-01-07T17:05:32;17.42;;;9.43;;
40052;SDS011;25758;48.200;16.338;2024-01-07T17:07:58;16.08;;;8.98;;
40052;SDS011;25758;48.200;16.338;2024-01-07T17:10:30;15.90;;;8.30;;
40052;SDS011;25758;48.200;16.338;2024-01-07T17:12:56;14.13;;;7.20;;
40052;SDS011;25758;48.200;16.338;2024-01-07T17:15:21;11.18;;;7.13;;
40052;SDS011;25758;48.200;16.338;2024-01-07T17:17:49;14.23;;;7.68;;
40052;SDS011;25758;48.200;16.338;2024-01-07T17:29:37;11.50;;;7.10;;
40052;SDS011;25758;48.200;16.338;2024-01-07T17:32:08;12.27;;;7.10;;
40052;SDS011;25758;48.200;16.338;2024-01-07T17:35:07;12.43;;;6.67;;
40052;SDS011;25758;48.200;16.338;2024-01-07T17:37:44;12.83;;;7.17;;
40052;SDS011;25758;48.200;16.338;2024-01-07T17:40:10;12.70;;;7.47;;
40052;SDS011;25758;48.200;16.338;2024-01-07T17:42:37;12.23;;;6.83;;
40052;SDS011;25758;48.200;16.338;2024-01-07T17:45:04;11.47;;;6.80;;
40052;SDS011;25758;48.200;16.338;2024-01-07T17:47:37;12.23;;;6.90;;
40052;SDS011;25758;48.200;16.338;2024-01-07T17:50:04;10.20;;;6.57;;
40052;SDS011;25758;48.200;16.338;2024-01-07T17:52:30;12.53;;;5.90;;
40052;SDS011;25758;48.200;16.338;2024-01-07T17:54:56;13.80;;;6.80;;
40052;SDS011;25758;48.200;16.338;2024-01-07T17:57:23;18.73;;;8.37;;
40052;SDS011;25758;48.200;16.338;2024-01-07T17:59:49;11.73;;;6.67;;
40052;SDS011;25758;48.200;16.338;2024-01-07T18:02:15;11.83;;;6.80;;
40052;SDS011;25758;48.200;16.338;2024-01-07T18:04:40;10.97;;;6.50;;
40052;SDS011;25758;48.200;16.338;2024-01-07T18:07:06;12.77;;;7.40;;
40052;SDS011;25758;48.200;16.338;2024-01-07T18:09:32;13.20;;;6.93;;
40052;SDS011;25758;48.200;16.338;2024-01-07T18:11:58;13.37;;;7.90;;
40052;SDS011;25758;48.200;16.338;2024-01-07T18:14:24;14.47;;;7.23;;
40052;SDS011;25758;48.200;16.338;2024-01-07T18:16:50;13.38;;;6.43;;
40052;SDS011;25758;48.200;16.338;2024-01-07T18:19:16;11.20;;;6.23;;
40052;SDS011;25758;48.200;16.338;2024-01-07T18:21:41;14.13;;;6.30;;
40052;SDS011;25758;48.200;16.338;2024-01-07T18:24:07;13.47;;;7.23;;
40052;SDS011;25758;48.200;16.338;2024-01-07T18:26:33;14.37;;;6.63;;
40052;SDS011;25758;48.200;16.338;2024-01-07T18:28:59;15.60;;;8.53;;
40052;SDS011;25758;48.200;16.338;2024-01-07T18:31:25;14.13;;;7.77;;
40052;SDS011;25758;48.200;16.338;2024-01-07T18:33:51;13.77;;;7.27;;
40052;SDS011;25758;48.200;16.338;2024-01-07T18:36:17;13.33;;;7.00;;
40052;SDS011;25758;48.200;16.338;2024-01-07T18:38:43;12.47;;;5.87;;
40052;SDS011;25758;48.200;16.338;2024-01-07T18:41:08;11.63;;;6.03;;
40052;SDS011;25758;48.200;16.338;2024-01-07T18:43:34;13.83;;;6.47;;
40052;SDS011;25758;48.200;16.338;2024-01-07T18:46:01;25.57;;;12.83;;
40052;SDS011;25758;48.200;16.338;2024-01-07T18:48:27;9.00;;;4.80;;
40052;SDS011;25758;48.200;16.338;2024-01-07T18:50:53;7.57;;;4.00;;
40052;SDS011;25758;48.200;16.338;2024-01-07T18:53:19;7.90;;;4.80;;
40052;SDS011;25758;48.200;16.338;2024-01-07T18:55:45;9.27;;;4.77;;
40052;SDS011;25758;48.200;16.338;2024-01-07T18:58:13;7.97;;;4.30;;
40052;SDS011;25758;48.200;16.338;2024-01-07T19:00:40;10.47;;;5.40;;
40052;SDS011;25758;48.200;16.338;2024-01-07T19:03:05;12.43;;;4.83;;
40052;SDS011;25758;48.200;16.338;2024-01-07T19:05:31;9.43;;;5.07;;
40052;SDS011;25758;48.200;16.338;2024-01-07T19:07:57;10.60;;;4.50;;
40052;SDS011;25758;48.200;16.338;2024-01-07T19:10:23;7.93;;;4.10;;
40052;SDS011;25758;48.200;16.338;2024-01-07T19:12:49;9.03;;;4.10;;
40052;SDS011;25758;48.200;16.338;2024-01-07T19:15:15;9.83;;;4.70;;
40052;SDS011;25758;48.200;16.338;2024-01-07T19:17:43;9.50;;;5.03;;
40052;SDS011;25758;48.200;16.338;2024-01-07T19:20:13;10.63;;;4.37;;
40052;SDS011;25758;48.200;16.338;2024-01-07T19:22:40;12.27;;;4.67;;
40052;SDS011;25758;48.200;16.338;2024-01-07T19:25:06;8.83;;;4.47;;
40052;SDS011;25758;48.200;16.338;2024-01-07T19:27:32;8.00;;;4.17;;
40052;SDS011;25758;48.200;16.338;2024-01-07T19:29:59;9.63;;;4.93;;
40052;SDS011;25758;48.200;16.338;2024-01-07T19:32:26;7.77;;;4.43;;
40052;SDS011;25758;48.200;16.338;2024-01-07T19:34:52;8.03;;;4.23;;
40052;SDS011;25758;48.200;16.338;2024-01-07T19:37:19;7.07;;;3.70;;
40052;SDS011;25758;48.200;16.338;2024-01-07T19:39:45;7.57;;;3.70;;
40052;SDS011;25758;48.200;16.338;2024-01-07T19:42:11;12.17;;;4.10;;
40052;SDS011;25758;48.200;16.338;2024-01-07T19:44:39;8.30;;;4.00;;
40052;SDS011;25758;48.200;16.338;2024-01-07T19:47:05;10.00;;;5.00;;
40052;SDS011;25758;48.200;16.338;2024-01-07T19:49:31;9.93;;;4.90;;
40052;SDS011;25758;48.200;16.338;2024-01-07T19:51:57;20.30;;;8.93;;
40052;SDS011;25758;48.200;16.338;2024-01-07T19:54:22;12.50;;;6.27;;
40052;SDS011;25758;48.200;16.338;2024-01-07T19:56:49;20.40;;;9.83;;
40052;SDS011;25758;48.200;16.338;2024-01-07T19:59:27;10.43;;;5.27;;
40052;SDS011;25758;48.200;16.338;2024-01-07T20:01:53;7.53;;;4.07;;
40052;SDS011;25758;48.200;16.338;2024-01-07T20:04:19;6.93;;;4.00;;
40052;SDS011;25758;48.200;16.338;2024-01-07T20:06:45;12.30;;;4.47;;
40052;SDS011;25758;48.200;16.338;2024-01-07T20:09:11;12.37;;;4.37;;
40052;SDS011;25758;48.200;16.338;2024-01-07T20:11:37;9.27;;;4.37;;
40052;SDS011;25758;48.200;16.338;2024-01-07T20:14:03;9.20;;;4.67;;
40052;SDS011;25758;48.200;16.338;2024-01-07T20:16:30;8.90;;;3.90;;
40052;SDS011;25758;48.200;16.338;2024-01-07T20:24:37;7.77;;;3.23;;
40052;SDS011;25758;48.200;16.338;2024-01-07T20:27:04;7.50;;;3.33;;
40052;SDS011;25758;48.200;16.338;2024-01-07T20:29:30;10.37;;;3.63;;
40052;SDS011;25758;48.200;16.338;2024-01-07T20:31:59;10.33;;;4.27;;
40052;SDS011;25758;48.200;16.338;2024-01-07T20:34:25;8.87;;;3.73;;
40052;SDS011;25758;48.200;16.338;2024-01-07T20:36:51;9.53;;;4.00;;